sensor_id;sensor_type;location;lat;lon;timestamp;P1;durP1;ratioP1;P2;durP2;ratioP2
13580;SDS011;6861;46.170;7.222;2023-02-28T00:01:27;7.33;;;5.73;;
13580;SDS011;6861;46.170;7.222;2023-02-28T00:03:56;8.20;;;6.70;;
13580;SDS011;6861;46.170;7.222;2023-02-28T00:06:24;7.70;;;5.90;;
13580;SDS011;6861;46.170;7.222;2023-02-28T00:08:53;7.30;;;6.10;;
13580;SDS011;6861;46.170;7.222;2023-02-28T00:11:21;12.00;;;8.23;;
13580;SDS011;6861;46.170;7.222;2023-02-28T00:13:49;10.93;;;7.27;;
13580;SDS011;6861;46.170;7.222;2023-02-28T00:16:20;9.00;;;7.17;;
13580;SDS011;6861;46.170;7.222;2023-02-28T00:18:49;8.30;;;6.73;;
13580;SDS011;6861;46.170;7.222;2023-02-28T00:21:18;10.13;;;7.10;;
13580;SDS011;6861;46.170;7.222;2023-02-28T00:23:47;8.70;;;6.47;;
13580;SDS011;6861;46.170;7.222;2023-02-28T00:26:15;7.67;;;6.40;;
13580;SDS011;6861;46.170;7.222;2023-02-28T00:28:46;8.20;;;6.40;;
13580;SDS011;6861;46.170;7.222;2023-02-28T00:31:14;8.57;;;6.20;;
13580;SDS011;6861;46.170;7.222;2023-02-28T00:33:44;7.37;;;5.83;;
13580;SDS011;6861;46.170;7.222;2023-02-28T00:36:12;7.90;;;6.33;;
13580;SDS011;6861;46.170;7.222;2023-02-28T00:38:40;7.53;;;6.63;;
13580;SDS011;6861;46.170;7.222;2023-02-28T00:41:08;9.43;;;7.20;;
13580;SDS011;6861;46.170;7.222;2023-02-28T00:43:37;8.57;;;6.80;;
13580;SDS011;6861;46.170;7.222;2023-02-28T00:46:06;8.90;;;7.20;;
13580;SDS011;6861;46.170;7.222;2023-02-28T00:48:34;9.10;;;6.80;;
13580;SDS011;6861;46.170;7.222;2023-02-28T00:51:04;10.13;;;6.83;;
13580;SDS011;6861;46.170;7.222;2023-02-28T00:53:33;8.00;;;6.50;;
13580;SDS011;6861;46.170;7.222;2023-02-28T00:56:01;8.50;;;6.90;;
13580;SDS011;6861;46.170;7.222;2023-02-28T01:06:06;8.60;;;7.17;;
13580;SDS011;6861;46.170;7.222;2023-02-28T01:08:34;9.30;;;7.33;;
13580;SDS011;6861;46.170;7.222;2023-02-28T01:11:09;8.37;;;7.33;;
13580;SDS011;6861;46.170;7.222;2023-02-28T01:13:38;9.03;;;7.40;;
13580;SDS011;6861;46.170;7.222;2023-02-28T01:16:06;9.23;;;6.90;;
13580;SDS011;6861;46.170;7.222;2023-02-28T01:18:35;8.03;;;6.80;;
13580;SDS011;6861;46.170;7.222;2023-02-28T01:21:04;9.27;;;7.57;;
13580;SDS011;6861;46.170;7.222;2023-02-28T01:23:34;9.87;;;7.73;;
13580;SDS011;6861;46.170;7.222;2023-02-28T01:26:05;9.37;;;7.37;;
13580;SDS011;6861;46.170;7.222;2023-02-28T01:28:34;8.77;;;7.03;;
13580;SDS011;6861;46.170;7.222;2023-02-28T01:31:03;9.83;;;7.37;;
13580;SDS011;6861;46.170;7.222;2023-02-28T01:33:32;9.97;;;7.73;;
13580;SDS011;6861;46.170;7.222;2023-02-28T01:36:01;8.50;;;7.47;;
13580;SDS011;6861;46.170;7.222;2023-02-28T01:38:32;8.53;;;7.10;;
13580;SDS011;6861;46.170;7.222;2023-02-28T01:41:01;9.37;;;7.20;;
13580;SDS011;6861;46.170;7.222;2023-02-28T01:43:31;8.63;;;7.27;;
13580;SDS011;6861;46.170;7.222;2023-02-28T01:46:19;7.93;;;6.80;;
13580;SDS011;6861;46.170;7.222;2023-02-28T01:48:49;9.30;;;7.57;;
13580;SDS011;6861;46.170;7.222;2023-02-28T01:51:21;10.97;;;7.70;;
13580;SDS011;6861;46.170;7.222;2023-02-28T01:53:56;9.47;;;7.20;;
13580;SDS011;6861;46.170;7.222;2023-02-28T01:56:28;9.20;;;7.47;;
13580;SDS011;6861;46.170;7.222;2023-02-28T01:59:00;9.77;;;7.80;;
13580;SDS011;6861;46.170;7.222;2023-02-28T02:01:29;8.20;;;7.00;;
13580;SDS011;6861;46.170;7.222;2023-02-28T02:03:59;8.37;;;7.00;;
13580;SDS011;6861;46.170;7.222;2023-02-28T02:06:30;8.67;;;7.33;;
13580;SDS011;6861;46.170;7.222;2023-02-28T02:09:04;9.00;;;7.67;;
13580;SDS011;6861;46.170;7.222;2023-02-28T02:11:33;10.97;;;8.07;;
13580;SDS011;6861;46.170;7.222;2023-02-28T02:14:10;8.97;;;7.37;;
13580;SDS011;6861;46.170;7.222;2023-02-28T02:16:53;10.53;;;7.53;;
13580;SDS011;6861;46.170;7.222;2023-02-28T02:19:39;9.93;;;7.67;;
13580;SDS011;6861;46.170;7.222;2023-02-28T02:25:41;8.30;;;7.40;;
13580;SDS011;6861;46.170;7.222;2023-02-28T02:28:17;9.87;;;7.63;;
13580;SDS011;6861;46.170;7.222;2023-02-28T02:31:05;10.33;;;7.00;;
13580;SDS011;6861;46.170;7.222;2023-02-28T02:34:05;10.00;;;7.70;;
13580;SDS011;6861;46.170;7.222;2023-02-28T02:37:02;9.83;;;7.80;;
13580;SDS011;6861;46.170;7.222;2023-02-28T02:39:40;9.57;;;7.20;;
13580;SDS011;6861;46.170;7.222;2023-02-28T02:42:17;10.73;;;8.40;;
13580;SDS011;6861;46.170;7.222;2023-02-28T02:44:53;9.10;;;7.97;;
13580;SDS011;6861;46.170;7.222;2023-02-28T02:47:29;10.07;;;7.80;;
13580;SDS011;6861;46.170;7.222;2023-02-28T02:50:01;10.23;;;8.00;;
13580;SDS011;6861;46.170;7.222;2023-02-28T02:52:33;9.77;;;8.53;;
13580;SDS011;6861;46.170;7.222;2023-02-28T02:55:04;10.17;;;8.00;;
13580;SDS011;6861;46.170;7.222;2023-02-28T02:57:38;10.10;;;7.37;;
13580;SDS011;6861;46.170;7.222;2023-02-28T03:00:12;8.53;;;7.20;;
13580;SDS011;6861;46.170;7.222;2023-02-28T03:02:43;9.70;;;7.93;;
13580;SDS011;6861;46.170;7.222;2023-02-28T03:05:17;10.57;;;7.90;;
13580;SDS011;6861;46.170;7.222;2023-02-28T03:07:49;10.03;;;8.03;;
13580;SDS011;6861;46.170;7.222;2023-02-28T03:10:30;9.10;;;7.23;;
13580;SDS011;6861;46.170;7.222;2023-02-28T03:13:05;10.33;;;8.00;;
13580;SDS011;6861;46.170;7.222;2023-02-28T03:15:45;9.70;;;8.13;;
13580;SDS011;6861;46.170;7.222;2023-02-28T03:18:27;10.60;;;8.03;;
13580;SDS011;6861;46.170;7.222;2023-02-28T03:21:03;8.97;;;7.47;;
13580;SDS011;6861;46.170;7.222;2023-02-28T03:23:41;9.40;;;7.77;;
13580;SDS011;6861;46.170;7.222;2023-02-28T03:26:13;9.03;;;7.67;;
13580;SDS011;6861;46.170;7.222;2023-02-28T03:28:51;12.93;;;8.03;;
13580;SDS011;6861;46.170;7.222;2023-02-28T03:31:26;9.87;;;7.63;;
13580;SDS011;6861;46.170;7.222;2023-02-28T03:33:59;9.27;;;7.53;;
13580;SDS011;6861;46.170;7.222;2023-02-28T03:36:35;8.77;;;7.40;;
13580;SDS011;6861;46.170;7.222;2023-02-28T03:39:11;8.57;;;7.00;;
13580;SDS011;6861;46.170;7.222;2023-02-28T03:41:44;9.43;;;7.10;;
13580;SDS011;6861;46.170;7.222;2023-02-28T03:44:17;7.93;;;7.13;;
13580;SDS011;6861;46.170;7.222;2023-02-28T03:46:50;8.27;;;7.07;;
13580;SDS011;6861;46.170;7.222;2023-02-28T03:49:26;8.73;;;7.27;;
13580;SDS011;6861;46.170;7.222;2023-02-28T03:51:59;9.03;;;7.50;;
13580;SDS011;6861;46.170;7.222;2023-02-28T03:54:31;8.93;;;7.33;;
13580;SDS011;6861;46.170;7.222;2023-02-28T03:57:06;9.00;;;7.17;;
13580;SDS011;6861;46.170;7.222;2023-02-28T03:59:43;9.10;;;7.07;;
13580;SDS011;6861;46.170;7.222;2023-02-28T04:02:15;8.37;;;6.73;;
13580;SDS011;6861;46.170;7.222;2023-02-28T04:04:44;10.10;;;7.93;;
13580;SDS011;6861;46.170;7.222;2023-02-28T04:07:16;9.00;;;7.33;;
13580;SDS011;6861;46.170;7.222;2023-02-28T04:09:44;9.13;;;7.70;;
13580;SDS011;6861;46.170;7.222;2023-02-28T04:12:13;9.70;;;7.57;;
13580;SDS011;6861;46.170;7.222;2023-02-28T04:14:41;9.27;;;7.13;;
13580;SDS011;6861;46.170;7.222;2023-02-28T04:17:09;8.57;;;7.53;;
13580;SDS011;6861;46.170;7.222;2023-02-28T04:19:37;9.30;;;7.77;;
13580;SDS011;6861;46.170;7.222;2023-02-28T04:22:05;10.07;;;9.07;;
13580;SDS011;6861;46.170;7.222;2023-02-28T04:24:36;10.97;;;9.40;;
13580;SDS011;6861;46.170;7.222;2023-02-28T04:27:08;11.30;;;9.00;;
13580;SDS011;6861;46.170;7.222;2023-02-28T04:29:36;10.13;;;8.47;;
13580;SDS011;6861;46.170;7.222;2023-02-28T04:32:04;9.57;;;7.43;;
13580;SDS011;6861;46.170;7.222;2023-02-28T04:34:33;9.23;;;7.63;;
13580;SDS011;6861;46.170;7.222;2023-02-28T04:37:01;8.40;;;7.33;;
13580;SDS011;6861;46.170;7.222;2023-02-28T04:39:41;10.40;;;8.07;;
13580;SDS011;6861;46.170;7.222;2023-02-28T04:42:10;9.47;;;7.97;;
13580;SDS011;6861;46.170;7.222;2023-02-28T04:44:39;8.97;;;7.60;;
13580;SDS011;6861;46.170;7.222;2023-02-28T04:47:07;10.20;;;7.80;;
13580;SDS011;6861;46.170;7.222;2023-02-28T04:49:36;9.57;;;7.70;;
13580;SDS011;6861;46.170;7.222;2023-02-28T04:52:04;11.17;;;7.83;;
13580;SDS011;6861;46.170;7.222;2023-02-28T04:54:33;9.47;;;8.07;;
13580;SDS011;6861;46.170;7.222;2023-02-28T04:57:03;11.27;;;8.47;;
13580;SDS011;6861;46.170;7.222;2023-02-28T04:59:32;9.27;;;7.90;;
13580;SDS011;6861;46.170;7.222;2023-02-28T05:02:00;8.67;;;7.77;;
13580;SDS011;6861;46.170;7.222;2023-02-28T05:04:33;9.43;;;7.43;;
13580;SDS011;6861;46.170;7.222;2023-02-28T05:07:02;9.47;;;8.23;;
13580;SDS011;6861;46.170;7.222;2023-02-28T05:09:30;10.83;;;7.90;;
13580;SDS011;6861;46.170;7.222;2023-02-28T05:11:59;12.37;;;8.00;;
13580;SDS011;6861;46.170;7.222;2023-02-28T05:14:29;12.00;;;7.73;;
13580;SDS011;6861;46.170;7.222;2023-02-28T05:16:57;10.57;;;8.80;;
13580;SDS011;6861;46.170;7.222;2023-02-28T05:19:25;9.20;;;8.10;;
13580;SDS011;6861;46.170;7.222;2023-02-28T05:21:54;12.67;;;8.80;;
13580;SDS011;6861;46.170;7.222;2023-02-28T05:24:22;8.63;;;7.43;;
13580;SDS011;6861;46.170;7.222;2023-02-28T05:26:51;8.80;;;7.50;;
13580;SDS011;6861;46.170;7.222;2023-02-28T05:29:21;11.60;;;8.00;;
13580;SDS011;6861;46.170;7.222;2023-02-28T05:31:51;10.77;;;8.13;;
13580;SDS011;6861;46.170;7.222;2023-02-28T05:34:19;9.93;;;7.80;;
13580;SDS011;6861;46.170;7.222;2023-02-28T05:36:47;9.97;;;8.33;;
13580;SDS011;6861;46.170;7.222;2023-02-28T05:39:15;11.30;;;8.37;;
13580;SDS011;6861;46.170;7.222;2023-02-28T05:41:44;10.10;;;7.77;;
13580;SDS011;6861;46.170;7.222;2023-02-28T05:44:12;11.27;;;8.30;;
13580;SDS011;6861;46.170;7.222;2023-02-28T05:46:40;10.17;;;8.20;;
13580;SDS011;6861;46.170;7.222;2023-02-28T05:49:09;9.70;;;7.80;;
13580;SDS011;6861;46.170;7.222;2023-02-28T05:51:38;10.07;;;7.90;;
13580;SDS011;6861;46.170;7.222;2023-02-28T05:54:06;11.47;;;9.10;;
13580;SDS011;6861;46.170;7.222;2023-02-28T05:56:35;11.63;;;9.00;;
13580;SDS011;6861;46.170;7.222;2023-02-28T05:59:05;8.60;;;7.53;;
13580;SDS011;6861;46.170;7.222;2023-02-28T06:01:34;11.53;;;8.57;;
13580;SDS011;6861;46.170;7.222;2023-02-28T06:04:03;9.83;;;8.27;;
13580;SDS011;6861;46.170;7.222;2023-02-28T06:06:35;10.77;;;8.47;;
13580;SDS011;6861;46.170;7.222;2023-02-28T06:09:05;11.27;;;8.43;;
13580;SDS011;6861;46.170;7.222;2023-02-28T06:11:34;12.13;;;8.53;;
13580;SDS011;6861;46.170;7.222;2023-02-28T06:14:02;22.23;;;14.73;;
13580;SDS011;6861;46.170;7.222;2023-02-28T06:16:32;14.93;;;9.80;;
13580;SDS011;6861;46.170;7.222;2023-02-28T06:19:02;26.50;;;16.17;;
13580;SDS011;6861;46.170;7.222;2023-02-28T06:21:31;18.00;;;11.07;;
13580;SDS011;6861;46.170;7.222;2023-02-28T06:24:01;13.23;;;9.33;;
13580;SDS011;6861;46.170;7.222;2023-02-28T06:26:30;12.53;;;9.57;;
13580;SDS011;6861;46.170;7.222;2023-02-28T06:28:58;12.73;;;9.73;;
13580;SDS011;6861;46.170;7.222;2023-02-28T06:31:27;13.33;;;8.87;;
13580;SDS011;6861;46.170;7.222;2023-02-28T06:33:56;13.97;;;10.43;;
13580;SDS011;6861;46.170;7.222;2023-02-28T06:36:25;15.73;;;11.23;;
13580;SDS011;6861;46.170;7.222;2023-02-28T06:38:53;15.93;;;11.00;;
13580;SDS011;6861;46.170;7.222;2023-02-28T06:41:25;11.87;;;9.33;;
13580;SDS011;6861;46.170;7.222;2023-02-28T06:43:55;11.33;;;8.87;;
13580;SDS011;6861;46.170;7.222;2023-02-28T06:46:23;15.57;;;10.13;;
13580;SDS011;6861;46.170;7.222;2023-02-28T06:48:51;15.60;;;11.93;;
13580;SDS011;6861;46.170;7.222;2023-02-28T06:51:20;9.53;;;8.33;;
13580;SDS011;6861;46.170;7.222;2023-02-28T06:53:48;13.43;;;9.10;;
13580;SDS011;6861;46.170;7.222;2023-02-28T06:56:17;13.07;;;8.80;;
13580;SDS011;6861;46.170;7.222;2023-02-28T06:58:48;12.13;;;9.67;;
13580;SDS011;6861;46.170;7.222;2023-02-28T07:01:19;10.73;;;8.10;;
13580;SDS011;6861;46.170;7.222;2023-02-28T07:03:49;13.23;;;8.30;;
13580;SDS011;6861;46.170;7.222;2023-02-28T07:06:18;10.73;;;8.70;;
13580;SDS011;6861;46.170;7.222;2023-02-28T07:08:49;14.20;;;9.87;;
13580;SDS011;6861;46.170;7.222;2023-02-28T07:11:18;11.57;;;9.23;;
13580;SDS011;6861;46.170;7.222;2023-02-28T07:13:47;13.13;;;8.30;;
13580;SDS011;6861;46.170;7.222;2023-02-28T07:16:15;11.03;;;8.30;;
13580;SDS011;6861;46.170;7.222;2023-02-28T07:18:44;10.57;;;8.33;;
13580;SDS011;6861;46.170;7.222;2023-02-28T07:21:12;10.07;;;8.57;;
13580;SDS011;6861;46.170;7.222;2023-02-28T07:23:40;10.43;;;8.70;;
13580;SDS011;6861;46.170;7.222;2023-02-28T07:26:10;11.07;;;9.03;;
13580;SDS011;6861;46.170;7.222;2023-02-28T07:28:41;10.33;;;8.70;;
13580;SDS011;6861;46.170;7.222;2023-02-28T07:31:11;11.83;;;8.77;;
13580;SDS011;6861;46.170;7.222;2023-02-28T07:33:42;10.43;;;9.33;;
13580;SDS011;6861;46.170;7.222;2023-02-28T07:36:11;10.73;;;8.87;;
13580;SDS011;6861;46.170;7.222;2023-02-28T07:38:41;11.47;;;9.03;;
13580;SDS011;6861;46.170;7.222;2023-02-28T07:41:13;12.33;;;9.33;;
13580;SDS011;6861;46.170;7.222;2023-02-28T07:43:42;11.13;;;9.03;;
13580;SDS011;6861;46.170;7.222;2023-02-28T07:46:14;13.53;;;9.57;;
13580;SDS011;6861;46.170;7.222;2023-02-28T07:48:43;11.30;;;8.70;;
13580;SDS011;6861;46.170;7.222;2023-02-28T07:51:12;11.60;;;9.13;;
13580;SDS011;6861;46.170;7.222;2023-02-28T07:53:40;11.43;;;8.87;;
13580;SDS011;6861;46.170;7.222;2023-02-28T07:56:08;11.40;;;9.07;;
13580;SDS011;6861;46.170;7.222;2023-02-28T07:58:37;13.80;;;9.53;;
13580;SDS011;6861;46.170;7.222;2023-02-28T08:01:06;24.77;;;16.17;;
13580;SDS011;6861;46.170;7.222;2023-02-28T08:03:37;19.33;;;13.43;;
13580;SDS011;6861;46.170;7.222;2023-02-28T08:06:06;14.70;;;9.50;;
13580;SDS011;6861;46.170;7.222;2023-02-28T08:08:42;9.97;;;8.50;;
13580;SDS011;6861;46.170;7.222;2023-02-28T08:11:10;12.33;;;10.33;;
13580;SDS011;6861;46.170;7.222;2023-02-28T08:13:39;14.23;;;11.37;;
13580;SDS011;6861;46.170;7.222;2023-02-28T08:16:08;12.97;;;9.30;;
13580;SDS011;6861;46.170;7.222;2023-02-28T08:18:38;13.57;;;9.07;;
13580;SDS011;6861;46.170;7.222;2023-02-28T08:21:06;9.60;;;8.60;;
13580;SDS011;6861;46.170;7.222;2023-02-28T08:23:35;10.27;;;8.63;;
13580;SDS011;6861;46.170;7.222;2023-02-28T08:26:03;9.52;;;8.63;;
13580;SDS011;6861;46.170;7.222;2023-02-28T08:28:32;9.93;;;8.70;;
13580;SDS011;6861;46.170;7.222;2023-02-28T08:31:01;10.32;;;9.23;;
13580;SDS011;6861;46.170;7.222;2023-02-28T08:33:38;11.93;;;10.68;;
13580;SDS011;6861;46.170;7.222;2023-02-28T08:36:06;12.18;;;10.88;;
13580;SDS011;6861;46.170;7.222;2023-02-28T08:38:36;9.30;;;8.50;;
13580;SDS011;6861;46.170;7.222;2023-02-28T08:41:05;9.55;;;8.60;;
13580;SDS011;6861;46.170;7.222;2023-02-28T08:43:35;11.55;;;8.38;;
13580;SDS011;6861;46.170;7.222;2023-02-28T08:46:04;11.30;;;8.73;;
13580;SDS011;6861;46.170;7.222;2023-02-28T08:48:34;12.77;;;9.65;;
13580;SDS011;6861;46.170;7.222;2023-02-28T08:51:06;9.98;;;8.93;;
13580;SDS011;6861;46.170;7.222;2023-02-28T08:53:35;8.73;;;7.82;;
13580;SDS011;6861;46.170;7.222;2023-02-28T08:56:05;10.07;;;8.10;;
13580;SDS011;6861;46.170;7.222;2023-02-28T08:58:35;8.63;;;7.82;;
13580;SDS011;6861;46.170;7.222;2023-02-28T09:01:07;8.93;;;8.02;;
13580;SDS011;6861;46.170;7.222;2023-02-28T09:03:36;10.35;;;8.95;;
13580;SDS011;6861;46.170;7.222;2023-02-28T09:06:06;9.60;;;8.57;;
13580;SDS011;6861;46.170;7.222;2023-02-28T09:08:34;9.80;;;8.80;;
13580;SDS011;6861;46.170;7.222;2023-02-28T09:11:02;10.75;;;9.55;;
13580;SDS011;6861;46.170;7.222;2023-02-28T09:13:31;11.20;;;10.07;;
13580;SDS011;6861;46.170;7.222;2023-02-28T09:16:00;23.33;;;17.63;;
13580;SDS011;6861;46.170;7.222;2023-02-28T09:18:30;33.78;;;22.58;;
13580;SDS011;6861;46.170;7.222;2023-02-28T09:20:58;26.42;;;19.98;;
13580;SDS011;6861;46.170;7.222;2023-02-28T09:23:28;22.08;;;14.73;;
13580;SDS011;6861;46.170;7.222;2023-02-28T09:25:56;19.40;;;15.82;;
13580;SDS011;6861;46.170;7.222;2023-02-28T09:28:24;46.85;;;38.08;;
13580;SDS011;6861;46.170;7.222;2023-02-28T09:30:53;21.63;;;17.02;;
13580;SDS011;6861;46.170;7.222;2023-02-28T09:33:23;9.65;;;8.70;;
13580;SDS011;6861;46.170;7.222;2023-02-28T09:35:57;9.18;;;8.32;;
13580;SDS011;6861;46.170;7.222;2023-02-28T09:38:27;9.73;;;8.38;;
13580;SDS011;6861;46.170;7.222;2023-02-28T09:40:57;8.43;;;7.68;;
13580;SDS011;6861;46.170;7.222;2023-02-28T09:43:27;8.38;;;7.60;;
13580;SDS011;6861;46.170;7.222;2023-02-28T09:46:02;8.80;;;7.90;;
13580;SDS011;6861;46.170;7.222;2023-02-28T09:48:38;9.13;;;8.23;;
13580;SDS011;6861;46.170;7.222;2023-02-28T09:51:12;7.88;;;7.07;;
13580;SDS011;6861;46.170;7.222;2023-02-28T09:53:52;8.98;;;8.27;;
13580;SDS011;6861;46.170;7.222;2023-02-28T09:56:28;8.63;;;7.70;;
13580;SDS011;6861;46.170;7.222;2023-02-28T09:59:01;8.30;;;7.65;;
13580;SDS011;6861;46.170;7.222;2023-02-28T10:01:34;8.02;;;7.28;;
13580;SDS011;6861;46.170;7.222;2023-02-28T10:04:08;7.88;;;7.28;;
13580;SDS011;6861;46.170;7.222;2023-02-28T10:06:44;8.10;;;7.40;;
13580;SDS011;6861;46.170;7.222;2023-02-28T10:09:18;8.05;;;7.35;;
13580;SDS011;6861;46.170;7.222;2023-02-28T10:11:50;8.23;;;7.55;;
13580;SDS011;6861;46.170;7.222;2023-02-28T10:14:22;8.85;;;8.05;;
13580;SDS011;6861;46.170;7.222;2023-02-28T10:16:54;8.02;;;7.32;;
13580;SDS011;6861;46.170;7.222;2023-02-28T10:19:25;6.97;;;6.38;;
13580;SDS011;6861;46.170;7.222;2023-02-28T10:21:59;6.57;;;6.00;;
13580;SDS011;6861;46.170;7.222;2023-02-28T10:24:33;6.70;;;6.10;;
13580;SDS011;6861;46.170;7.222;2023-02-28T10:27:06;6.68;;;6.10;;
13580;SDS011;6861;46.170;7.222;2023-02-28T10:29:43;6.53;;;5.93;;
13580;SDS011;6861;46.170;7.222;2023-02-28T10:32:13;6.35;;;5.85;;
13580;SDS011;6861;46.170;7.222;2023-02-28T10:34:44;8.60;;;6.28;;
13580;SDS011;6861;46.170;7.222;2023-02-28T10:37:12;6.70;;;6.10;;
13580;SDS011;6861;46.170;7.222;2023-02-28T10:39:44;6.65;;;6.05;;
13580;SDS011;6861;46.170;7.222;2023-02-28T10:42:21;7.38;;;6.78;;
13580;SDS011;6861;46.170;7.222;2023-02-28T10:47:41;7.43;;;6.10;;
13580;SDS011;6861;46.170;7.222;2023-02-28T10:50:32;6.72;;;6.00;;
13580;SDS011;6861;46.170;7.222;2023-02-28T10:53:10;7.20;;;6.60;;
13580;SDS011;6861;46.170;7.222;2023-02-28T10:55:46;7.28;;;6.63;;
13580;SDS011;6861;46.170;7.222;2023-02-28T10:58:25;7.40;;;6.80;;
13580;SDS011;6861;46.170;7.222;2023-02-28T11:00:56;7.38;;;6.65;;
13580;SDS011;6861;46.170;7.222;2023-02-28T11:03:28;7.22;;;6.53;;
13580;SDS011;6861;46.170;7.222;2023-02-28T11:05:58;6.90;;;6.30;;
13580;SDS011;6861;46.170;7.222;2023-02-28T11:08:34;6.78;;;6.18;;
13580;SDS011;6861;46.170;7.222;2023-02-28T11:11:12;7.20;;;6.50;;
13580;SDS011;6861;46.170;7.222;2023-02-28T11:13:44;7.35;;;6.65;;
13580;SDS011;6861;46.170;7.222;2023-02-28T11:16:14;7.45;;;6.85;;
13580;SDS011;6861;46.170;7.222;2023-02-28T11:18:46;6.85;;;6.25;;
13580;SDS011;6861;46.170;7.222;2023-02-28T11:21:18;7.10;;;6.50;;
13580;SDS011;6861;46.170;7.222;2023-02-28T11:23:51;7.28;;;6.57;;
13580;SDS011;6861;46.170;7.222;2023-02-28T11:26:36;7.13;;;6.53;;
13580;SDS011;6861;46.170;7.222;2023-02-28T11:29:11;7.10;;;6.38;;
13580;SDS011;6861;46.170;7.222;2023-02-28T11:32:00;7.35;;;6.60;;
13580;SDS011;6861;46.170;7.222;2023-02-28T11:34:31;7.30;;;6.65;;
13580;SDS011;6861;46.170;7.222;2023-02-28T11:37:00;8.25;;;6.65;;
13580;SDS011;6861;46.170;7.222;2023-02-28T11:39:31;8.02;;;6.75;;
13580;SDS011;6861;46.170;7.222;2023-02-28T11:45:14;7.78;;;6.88;;
13580;SDS011;6861;46.170;7.222;2023-02-28T11:47:51;7.05;;;6.43;;
13580;SDS011;6861;46.170;7.222;2023-02-28T11:50:38;7.57;;;6.88;;
13580;SDS011;6861;46.170;7.222;2023-02-28T11:53:17;10.60;;;6.70;;
13580;SDS011;6861;46.170;7.222;2023-02-28T11:55:53;8.50;;;6.85;;
13580;SDS011;6861;46.170;7.222;2023-02-28T11:58:39;8.20;;;6.45;;
13580;SDS011;6861;46.170;7.222;2023-02-28T12:01:28;9.88;;;7.22;;
13580;SDS011;6861;46.170;7.222;2023-02-28T12:04:16;8.35;;;7.38;;
13580;SDS011;6861;46.170;7.222;2023-02-28T12:06:54;9.93;;;7.60;;
13580;SDS011;6861;46.170;7.222;2023-02-28T12:12:22;8.75;;;7.50;;
13580;SDS011;6861;46.170;7.222;2023-02-28T12:15:12;8.57;;;6.95;;
13580;SDS011;6861;46.170;7.222;2023-02-28T12:17:54;10.30;;;7.10;;
13580;SDS011;6861;46.170;7.222;2023-02-28T12:20:41;8.77;;;7.22;;
13580;SDS011;6861;46.170;7.222;2023-02-28T12:23:21;7.10;;;6.50;;
13580;SDS011;6861;46.170;7.222;2023-02-28T12:26:10;8.90;;;7.45;;
13580;SDS011;6861;46.170;7.222;2023-02-28T12:28:47;8.60;;;7.18;;
13580;SDS011;6861;46.170;7.222;2023-02-28T12:31:21;8.05;;;7.30;;
13580;SDS011;6861;46.170;7.222;2023-02-28T12:33:55;8.95;;;6.75;;
13580;SDS011;6861;46.170;7.222;2023-02-28T12:36:29;10.80;;;6.97;;
13580;SDS011;6861;46.170;7.222;2023-02-28T12:38:59;7.82;;;6.70;;
13580;SDS011;6861;46.170;7.222;2023-02-28T12:41:33;8.45;;;7.63;;
13580;SDS011;6861;46.170;7.222;2023-02-28T12:44:06;8.00;;;7.20;;
13580;SDS011;6861;46.170;7.222;2023-02-28T12:46:41;12.48;;;7.35;;
13580;SDS011;6861;46.170;7.222;2023-02-28T12:49:14;8.73;;;7.72;;
13580;SDS011;6861;46.170;7.222;2023-02-28T12:51:45;7.80;;;7.00;;
13580;SDS011;6861;46.170;7.222;2023-02-28T12:54:16;8.60;;;7.40;;
13580;SDS011;6861;46.170;7.222;2023-02-28T12:56:53;8.70;;;7.28;;
13580;SDS011;6861;46.170;7.222;2023-02-28T12:59:32;9.20;;;8.02;;
13580;SDS011;6861;46.170;7.222;2023-02-28T13:05:32;9.43;;;7.18;;
13580;SDS011;6861;46.170;7.222;2023-02-28T13:11:31;8.07;;;7.22;;
13580;SDS011;6861;46.170;7.222;2023-02-28T13:14:02;8.18;;;7.38;;
13580;SDS011;6861;46.170;7.222;2023-02-28T13:19:27;8.57;;;7.40;;
13580;SDS011;6861;46.170;7.222;2023-02-28T13:21:58;9.45;;;7.43;;
13580;SDS011;6861;46.170;7.222;2023-02-28T13:24:39;11.50;;;7.32;;
13580;SDS011;6861;46.170;7.222;2023-02-28T13:36:08;9.20;;;7.18;;
13580;SDS011;6861;46.170;7.222;2023-02-28T13:38:40;13.00;;;7.43;;
13580;SDS011;6861;46.170;7.222;2023-02-28T13:44:10;9.63;;;7.47;;
13580;SDS011;6861;46.170;7.222;2023-02-28T13:49:46;9.13;;;7.65;;
13580;SDS011;6861;46.170;7.222;2023-02-28T13:52:15;11.82;;;8.48;;
13580;SDS011;6861;46.170;7.222;2023-02-28T13:54:54;8.30;;;7.47;;
13580;SDS011;6861;46.170;7.222;2023-02-28T13:57:35;11.82;;;7.53;;
13580;SDS011;6861;46.170;7.222;2023-02-28T14:00:21;8.50;;;7.25;;
13580;SDS011;6861;46.170;7.222;2023-02-28T14:03:03;10.30;;;8.10;;
13580;SDS011;6861;46.170;7.222;2023-02-28T14:05:40;8.45;;;7.57;;
13580;SDS011;6861;46.170;7.222;2023-02-28T14:08:11;11.15;;;7.70;;
13580;SDS011;6861;46.170;7.222;2023-02-28T14:10:45;10.98;;;8.10;;
13580;SDS011;6861;46.170;7.222;2023-02-28T14:16:11;9.60;;;8.60;;
13580;SDS011;6861;46.170;7.222;2023-02-28T14:18:42;11.88;;;8.07;;
13580;SDS011;6861;46.170;7.222;2023-02-28T14:21:20;10.07;;;8.10;;
13580;SDS011;6861;46.170;7.222;2023-02-28T14:24:02;8.50;;;7.70;;
13580;SDS011;6861;46.170;7.222;2023-02-28T14:30:03;11.13;;;8.32;;
13580;SDS011;6861;46.170;7.222;2023-02-28T14:32:44;8.75;;;7.88;;
13580;SDS011;6861;46.170;7.222;2023-02-28T14:35:35;10.35;;;7.78;;
13580;SDS011;6861;46.170;7.222;2023-02-28T14:38:14;12.65;;;8.88;;
13580;SDS011;6861;46.170;7.222;2023-02-28T14:40:47;11.55;;;8.73;;
13580;SDS011;6861;46.170;7.222;2023-02-28T14:43:21;9.93;;;8.05;;
13580;SDS011;6861;46.170;7.222;2023-02-28T14:45:51;11.82;;;8.25;;
13580;SDS011;6861;46.170;7.222;2023-02-28T14:48:21;9.57;;;8.52;;
13580;SDS011;6861;46.170;7.222;2023-02-28T14:50:52;9.38;;;7.75;;
13580;SDS011;6861;46.170;7.222;2023-02-28T14:53:22;10.57;;;8.45;;
13580;SDS011;6861;46.170;7.222;2023-02-28T14:55:53;10.82;;;8.57;;
13580;SDS011;6861;46.170;7.222;2023-02-28T14:58:24;10.48;;;8.35;;
13580;SDS011;6861;46.170;7.222;2023-02-28T15:00:54;9.48;;;7.97;;
13580;SDS011;6861;46.170;7.222;2023-02-28T15:03:24;13.07;;;7.88;;
13580;SDS011;6861;46.170;7.222;2023-02-28T15:05:58;9.77;;;8.70;;
13580;SDS011;6861;46.170;7.222;2023-02-28T15:08:27;11.32;;;8.23;;
13580;SDS011;6861;46.170;7.222;2023-02-28T15:11:02;13.93;;;8.23;;
13580;SDS011;6861;46.170;7.222;2023-02-28T15:13:36;10.07;;;9.07;;
13580;SDS011;6861;46.170;7.222;2023-02-28T15:16:08;9.82;;;7.95;;
13580;SDS011;6861;46.170;7.222;2023-02-28T15:18:44;12.00;;;7.85;;
13580;SDS011;6861;46.170;7.222;2023-02-28T15:21:16;9.25;;;8.20;;
13580;SDS011;6861;46.170;7.222;2023-02-28T15:23:46;13.30;;;8.77;;
13580;SDS011;6861;46.170;7.222;2023-02-28T15:26:20;11.23;;;8.65;;
13580;SDS011;6861;46.170;7.222;2023-02-28T15:28:54;9.07;;;8.25;;
13580;SDS011;6861;46.170;7.222;2023-02-28T15:31:27;14.13;;;9.40;;
13580;SDS011;6861;46.170;7.222;2023-02-28T15:34:12;10.43;;;9.07;;
13580;SDS011;6861;46.170;7.222;2023-02-28T15:36:47;9.60;;;8.45;;
13580;SDS011;6861;46.170;7.222;2023-02-28T15:39:19;11.43;;;9.48;;
13580;SDS011;6861;46.170;7.222;2023-02-28T15:41:49;11.30;;;8.55;;
13580;SDS011;6861;46.170;7.222;2023-02-28T15:44:23;10.65;;;8.90;;
13580;SDS011;6861;46.170;7.222;2023-02-28T15:46:57;11.70;;;9.13;;
13580;SDS011;6861;46.170;7.222;2023-02-28T15:49:29;12.73;;;11.10;;
13580;SDS011;6861;46.170;7.222;2023-02-28T15:52:10;9.60;;;8.60;;
13580;SDS011;6861;46.170;7.222;2023-02-28T15:54:42;23.63;;;17.95;;
13580;SDS011;6861;46.170;7.222;2023-02-28T15:57:13;13.00;;;9.52;;
13580;SDS011;6861;46.170;7.222;2023-02-28T15:59:48;11.68;;;9.00;;
13580;SDS011;6861;46.170;7.222;2023-02-28T16:02:20;11.05;;;8.88;;
13580;SDS011;6861;46.170;7.222;2023-02-28T16:05:00;10.73;;;8.80;;
13580;SDS011;6861;46.170;7.222;2023-02-28T16:07:44;13.68;;;9.10;;
13580;SDS011;6861;46.170;7.222;2023-02-28T16:10:13;12.07;;;9.25;;
13580;SDS011;6861;46.170;7.222;2023-02-28T16:12:42;9.68;;;8.68;;
13580;SDS011;6861;46.170;7.222;2023-02-28T16:15:17;10.55;;;9.35;;
13580;SDS011;6861;46.170;7.222;2023-02-28T16:17:47;10.07;;;9.00;;